Time;durP1;ratioP1;P1;durP2;ratioP2;P2;SDS_P1;SDS_P2;PMS_P1;PMS_P2;Temp;Humidity;BMP_temperature;BMP_pressure;BME280_temperature;BME280_humidity;BME280_pressure;Samples;Min_cycle;Max_cycle;Signal;HPM_P1;HPM_P2
2022/03/17 00:00:54;;;;;;;1.45;1.25;;;12.20;99.90;;;;;;5050731;28;21247;-76
2022/03/17 00:03:21;;;;;;;2.05;1.88;;;12.20;99.90;;;;;;5049857;28;20202;-77
2022/03/17 00:05:48;;;;;;;1.83;1.60;;;12.20;99.90;;;;;;5051694;28;20524;-77
2022/03/17 00:08:15;;;;;;;5.97;4.18;;;12.30;99.90;;;;;;5054133;28;20198;-76
2022/03/17 00:10:42;;;;;;;14.75;4.30;;;12.20;99.90;;;;;;5054748;28;20671;-76
2022/03/17 00:13:11;;;;;;;4.90;3.10;;;12.20;99.90;;;;;;5055877;28;20271;-77
2022/03/17 00:15:39;;;;;;;5.10;2.38;;;12.20;99.90;;;;;;5055637;28;20469;-77
2022/03/17 00:18:06;;;;;;;6.55;4.00;;;12.20;99.90;;;;;;5055969;28;20198;-76
2022/03/17 00:20:33;;;;;;;4.80;3.43;;;12.20;99.90;;;;;;5054688;28;20202;-75
2022/03/17 00:23:00;;;;;;;1.10;1.10;;;12.20;99.90;;;;;;5055559;28;20955;-77
2022/03/17 00:25:29;;;;;;;0.77;0.77;;;12.20;99.90;;;;;;5055776;28;20214;-77
2022/03/17 00:27:56;;;;;;;4.00;2.67;;;12.20;99.90;;;;;;5055730;28;20293;-77
2022/03/17 00:30:24;;;;;;;1.10;0.93;;;12.20;99.90;;;;;;5054928;28;20528;-76
2022/03/17 00:32:51;;;;;;;1.60;1.00;;;12.20;99.90;;;;;;5055653;28;20464;-74
2022/03/17 00:35:36;;;;;;;6.82;3.15;;;12.20;99.90;;;;;;5055429;28;20989;-75
2022/03/17 00:38:03;;;;;;;1.27;0.97;;;12.20;99.90;;;;;;5055145;28;20199;-76
2022/03/17 00:40:30;;;;;;;3.65;3.35;;;12.20;99.90;;;;;;5054641;28;20817;-77
2022/03/17 00:42:57;;;;;;;6.60;5.65;;;12.20;99.90;;;;;;5055078;28;20285;-75
2022/03/17 00:45:25;;;;;;;5.63;3.35;;;12.20;99.90;;;;;;5055265;28;20214;-77
2022/03/17 00:47:52;;;;;;;0.50;0.50;;;12.10;99.90;;;;;;5054864;28;20199;-77
2022/03/17 00:50:19;;;;;;;3.05;2.85;;;12.10;99.90;;;;;;5054484;28;20201;-77
2022/03/17 00:52:45;;;;;;;2.00;1.90;;;12.10;99.90;;;;;;5055232;28;20230;-76
2022/03/17 00:55:14;;;;;;;6.15;5.45;;;12.10;99.90;;;;;;5053994;28;20719;-76
2022/03/17 00:57:40;;;;;;;0.60;0.50;;;12.10;99.90;;;;;;5054944;28;20206;-76
2022/03/17 01:00:09;;;;;;;1.35;1.25;;;12.10;99.90;;;;;;5052311;28;20467;-76
2022/03/17 01:02:37;;;;;;;4.38;3.40;;;12.10;99.90;;;;;;5054727;28;20221;-76
2022/03/17 01:05:06;;;;;;;3.35;2.67;;;12.00;99.90;;;;;;5054761;28;20300;-76
2022/03/17 01:07:33;;;;;;;1.30;1.10;;;12.00;99.90;;;;;;5054618;28;20199;-76
2022/03/17 01:10:01;;;;;;;7.60;4.03;;;12.00;99.90;;;;;;5054103;28;20198;-75
2022/03/17 01:12:27;;;;;;;4.20;2.50;;;12.00;99.90;;;;;;5054842;28;20682;-77
2022/03/17 01:14:54;;;;;;;2.67;1.88;;;12.00;99.90;;;;;;5055048;28;20209;-76
2022/03/17 01:17:21;;;;;;;1.35;1.25;;;12.00;99.90;;;;;;5054863;28;20198;-75
2022/03/17 01:19:49;;;;;;;6.63;2.65;;;12.00;99.90;;;;;;5053920;28;20195;-75
2022/03/17 01:22:16;;;;;;;8.68;2.95;;;12.00;99.90;;;;;;5054838;28;20221;-77
2022/03/17 01:24:43;;;;;;;2.65;1.52;;;12.00;99.90;;;;;;5054805;28;20297;-75
2022/03/17 01:27:10;;;;;;;0.82;0.80;;;12.00;99.90;;;;;;5054732;28;20214;-74
2022/03/17 01:29:38;;;;;;;8.82;2.28;;;12.00;99.90;;;;;;5054690;28;20198;-75
2022/03/17 01:32:06;;;;;;;4.90;3.28;;;12.00;99.90;;;;;;5054828;28;20236;-75
2022/03/17 01:34:33;;;;;;;2.10;1.77;;;12.00;99.90;;;;;;5054926;28;20199;-77
2022/03/17 01:37:01;;;;;;;1.08;1.00;;;12.00;99.90;;;;;;5054391;28;20215;-77
2022/03/17 01:39:27;;;;;;;7.45;4.82;;;12.00;99.90;;;;;;5053848;28;20205;-76
2022/03/17 01:41:57;;;;;;;7.40;2.77;;;12.00;99.90;;;;;;5055114;28;20286;-77
2022/03/17 01:44:24;;;;;;;3.03;2.83;;;12.00;99.90;;;;;;5054389;28;20444;-77
2022/03/17 01:49:37;;;;;;;4.10;2.63;;;11.90;99.90;;;;;;5053839;28;20177;-75
2022/03/17 01:52:06;;;;;;;3.70;3.40;;;11.90;99.90;;;;;;5055325;28;20739;-74
2022/03/17 01:54:33;;;;;;;5.00;4.50;;;11.90;99.90;;;;;;5054476;28;20225;-76
2022/03/17 01:57:00;;;;;;;2.95;2.70;;;11.90;99.90;;;;;;5052402;28;20229;-78
2022/03/17 01:59:29;;;;;;;3.25;2.95;;;11.90;99.90;;;;;;5054003;28;20199;-75
2022/03/17 02:01:56;;;;;;;9.07;3.80;;;11.90;99.90;;;;;;5054768;28;20675;-76
2022/03/17 02:04:23;;;;;;;3.63;3.40;;;11.90;99.90;;;;;;5054491;28;20198;-77
2022/03/17 02:06:49;;;;;;;3.78;3.22;;;11.90;99.90;;;;;;5054637;28;20211;-77
2022/03/17 02:09:18;;;;;;;2.87;2.50;;;11.90;99.90;;;;;;5053545;28;20198;-78
2022/03/17 02:14:34;;;;;;;3.72;2.65;;;11.90;99.90;;;;;;5054111;28;20201;-75
2022/03/17 02:17:01;;;;;;;10.55;4.25;;;11.90;99.90;;;;;;5053729;28;20219;-76
2022/03/17 02:19:28;;;;;;;1.90;1.73;;;11.90;99.90;;;;;;5053333;28;20191;-77
2022/03/17 02:21:54;;;;;;;2.10;1.90;;;11.80;99.90;;;;;;5053694;28;20222;-76
2022/03/17 02:27:07;;;;;;;3.00;2.90;;;11.80;99.90;;;;;;5053789;28;20217;-76
2022/03/17 02:29:33;;;;;;;1.50;1.15;;;11.80;99.90;;;;;;5052889;28;20194;-75
2022/03/17 02:32:00;;;;;;;1.45;1.15;;;11.80;99.90;;;;;;5053326;28;20205;-78
2022/03/17 02:34:27;;;;;;;3.05;2.60;;;11.80;99.90;;;;;;5053852;28;20195;-75
2022/03/17 02:36:54;;;;;;;4.80;4.32;;;11.70;99.90;;;;;;5053514;28;20218;-75
2022/03/17 02:39:22;;;;;;;1.63;1.53;;;11.80;99.90;;;;;;5052758;28;20635;-77
2022/03/17 02:41:49;;;;;;;2.47;2.28;;;11.80;99.90;;;;;;5053783;28;20512;-76
2022/03/17 02:44:16;;;;;;;2.45;2.35;;;11.80;99.90;;;;;;5060073;28;20572;-76
2022/03/17 02:46:42;;;;;;;3.22;2.95;;;11.80;99.90;;;;;;5060134;28;20616;-75
2022/03/17 02:49:09;;;;;;;33.80;10.30;;;11.80;99.90;;;;;;5065000;28;20199;-76
2022/03/17 02:51:37;;;;;;;0.73;0.60;;;11.80;99.90;;;;;;5077146;28;20405;-77
2022/03/17 02:54:04;;;;;;;9.80;6.00;;;11.70;99.90;;;;;;5076215;28;20199;-74
2022/03/17 02:56:34;;;;;;;5.60;4.47;;;11.70;99.90;;;;;;5060694;28;20301;-75
2022/03/17 02:59:00;;;;;;;1.58;1.33;;;11.70;99.90;;;;;;5053187;28;20267;-75
2022/03/17 03:01:27;;;;;;;2.25;2.05;;;11.70;99.90;;;;;;5053861;28;20236;-74
2022/03/17 03:03:54;;;;;;;1.67;1.58;;;11.70;99.90;;;;;;5053038;28;20204;-74
2022/03/17 03:06:20;;;;;;;1.98;1.88;;;11.70;99.90;;;;;;5053299;28;20217;-76
2022/03/17 03:08:47;;;;;;;2.53;2.33;;;11.70;99.90;;;;;;5053157;28;20206;-74
2022/03/17 03:11:14;;;;;;;2.35;2.15;;;11.80;99.90;;;;;;5053739;28;20204;-75
2022/03/17 03:13:43;;;;;;;0.50;0.40;;;11.70;99.90;;;;;;5053634;28;20292;-76
2022/03/17 03:16:09;;;;;;;5.45;2.78;;;11.70;99.90;;;;;;5053840;28;20229;-75
2022/03/17 03:18:37;;;;;;;1.55;1.48;;;11.70;99.90;;;;;;5053628;28;20588;-74
2022/03/17 03:21:03;;;;;;;11.45;1.95;;;11.70;99.90;;;;;;5053207;28;20221;-77
2022/03/17 03:23:30;;;;;;;1.83;1.73;;;11.70;99.90;;;;;;5053873;28;20308;-75
2022/03/17 03:25:57;;;;;;;1.55;1.45;;;11.70;99.90;;;;;;5053761;28;20738;-75
2022/03/17 03:28:23;;;;;;;4.65;0.93;;;11.70;99.90;;;;;;5053742;28;20217;-74
2022/03/17 03:30:52;;;;;;;0.50;0.40;;;11.70;99.90;;;;;;5052604;28;20212;-75
2022/03/17 03:33:18;;;;;;;3.05;2.22;;;11.70;99.90;;;;;;5053239;28;20556;-75
2022/03/17 03:38:29;;;;;;;6.60;2.50;;;11.70;99.90;;;;;;5052728;28;20237;-75
2022/03/17 03:40:56;;;;;;;7.13;3.92;;;11.70;99.90;;;;;;5051986;28;20204;-76
2022/03/17 03:43:23;;;;;;;3.20;2.90;;;11.60;99.90;;;;;;5052329;28;20316;-75
2022/03/17 03:45:51;;;;;;;5.10;3.70;;;11.70;99.90;;;;;;5051652;28;20580;-76
2022/03/17 03:48:18;;;;;;;1.73;1.63;;;11.70;99.90;;;;;;5052760;28;20198;-74
2022/03/17 03:50:46;;;;;;;5.38;1.80;;;11.70;99.90;;;;;;5052563;28;20209;-75
2022/03/17 03:53:13;;;;;;;0.50;0.40;;;11.70;99.90;;;;;;5053247;28;20276;-74
2022/03/17 03:55:39;;;;;;;2.58;2.38;;;11.70;99.90;;;;;;5051436;28;20233;-77
2022/03/17 03:58:06;;;;;;;1.08;1.05;;;11.70;99.90;;;;;;5053906;28;20207;-75
2022/03/17 04:00:33;;;;;;;7.10;1.25;;;11.70;99.90;;;;;;5052005;28;20568;-75
2022/03/17 04:03:03;;;;;;;10.48;3.95;;;11.80;99.90;;;;;;5053459;28;20218;-76
2022/03/17 04:05:31;;;;;;;7.00;4.35;;;11.80;99.90;;;;;;5052453;28;20255;-74
2022/03/17 04:07:57;;;;;;;12.88;3.72;;;11.70;99.90;;;;;;5052817;28;20206;-75
2022/03/17 04:10:25;;;;;;;4.75;2.58;;;11.70;99.90;;;;;;5051638;28;20205;-75
2022/03/17 04:12:52;;;;;;;1.80;1.70;;;11.70;99.90;;;;;;5053116;28;20190;-75
2022/03/17 04:15:19;;;;;;;3.90;3.28;;;11.70;99.90;;;;;;5054451;28;20615;-75
2022/03/17 04:17:45;;;;;;;0.50;0.40;;;11.70;99.90;;;;;;5055230;28;20199;-76
2022/03/17 04:20:13;;;;;;;7.25;4.32;;;11.70;99.90;;;;;;5054143;28;20198;-75
2022/03/17 04:22:41;;;;;;;1.50;1.40;;;11.60;99.90;;;;;;5055436;28;20217;-74
2022/03/17 04:25:08;;;;;;;5.95;4.20;;;11.60;99.90;;;;;;5053719;28;20218;-75
2022/03/17 04:27:35;;;;;;;6.32;3.67;;;11.60;99.90;;;;;;5060379;28;20204;-76
2022/03/17 04:30:02;;;;;;;2.53;2.35;;;11.60;99.90;;;;;;5053868;28;20209;-76
2022/03/17 04:32:29;;;;;;;3.72;3.53;;;11.50;99.90;;;;;;5054216;28;20191;-75
2022/03/17 04:34:56;;;;;;;7.65;5.40;;;11.50;99.90;;;;;;5053743;28;20217;-75
2022/03/17 04:37:24;;;;;;;2.97;0.90;;;11.40;99.90;;;;;;5053792;28;20195;-76
2022/03/17 04:39:50;;;;;;;15.85;7.88;;;11.30;99.90;;;;;;5053083;28;20221;-76
2022/03/17 04:42:17;;;;;;;2.72;2.50;;;11.20;99.90;;;;;;5053221;28;20206;-75
2022/03/17 04:44:44;;;;;;;2.92;1.80;;;11.10;99.90;;;;;;5052858;28;20201;-76
2022/03/17 04:47:11;;;;;;;3.78;2.50;;;11.00;99.90;;;;;;5052898;28;20663;-77
2022/03/17 04:49:37;;;;;;;1.52;1.42;;;11.00;99.90;;;;;;5051417;28;20205;-76
2022/03/17 04:53:26;;;;;;;0.50;0.40;;;10.90;99.90;;;;;;5052344;28;20216;-76
2022/03/17 04:54:53;;;;;;;12.68;7.82;;;10.90;99.90;;;;;;5055007;28;20265;-76
2022/03/17 04:57:22;;;;;;;4.65;2.42;;;10.80;99.90;;;;;;5054576;28;20229;-75
2022/03/17 04:59:48;;;;;;;0.70;0.70;;;10.60;99.90;;;;;;5055449;28;20637;-74
2022/03/17 05:02:15;;;;;;;3.67;2.95;;;10.60;99.90;;;;;;5056021;28;20228;-77
2022/03/17 05:04:42;;;;;;;2.10;2.00;;;10.50;99.90;;;;;;5055964;28;20204;-76
2022/03/17 05:07:09;;;;;;;7.03;6.28;;;10.50;99.90;;;;;;5056411;28;20198;-76
2022/03/17 05:09:35;;;;;;;6.75;5.05;;;10.40;99.90;;;;;;5055097;28;20204;-76
2022/03/17 05:12:04;;;;;;;1.73;1.63;;;10.30;99.90;;;;;;5055504;28;20197;-76
2022/03/17 05:14:31;;;;;;;2.08;1.92;;;10.20;99.90;;;;;;5055441;28;20670;-76
2022/03/17 05:16:58;;;;;;;3.92;3.67;;;10.10;99.90;;;;;;5055580;28;20228;-76
2022/03/17 05:19:24;;;;;;;1.98;1.63;;;10.00;99.90;;;;;;5055305;28;20204;-76
2022/03/17 05:21:53;;;;;;;2.40;2.30;;;9.90;99.90;;;;;;5055674;28;20563;-75
2022/03/17 05:24:20;;;;;;;6.80;6.25;;;9.80;99.90;;;;;;5055310;28;20196;-76
2022/03/17 05:26:47;;;;;;;13.93;3.22;;;9.70;99.90;;;;;;5055496;28;20227;-76
2022/03/17 05:29:15;;;;;;;1.33;1.25;;;9.60;99.90;;;;;;5054643;28;20194;-77
2022/03/17 05:31:42;;;;;;;4.90;2.20;;;9.50;99.90;;;;;;5055648;28;20196;-76
2022/03/17 05:34:09;;;;;;;8.05;4.43;;;9.50;99.90;;;;;;5055047;28;20199;-76
2022/03/17 05:36:35;;;;;;;3.10;2.83;;;9.50;99.90;;;;;;5053983;28;20591;-77
2022/03/17 05:39:02;;;;;;;13.50;9.23;;;9.40;99.90;;;;;;5054457;28;20198;-77
2022/03/17 05:41:29;;;;;;;59.20;10.02;;;9.40;99.90;;;;;;5055199;28;20191;-77
2022/03/17 05:43:56;;;;;;;3.75;1.48;;;9.40;99.90;;;;;;5054986;28;20795;-77
2022/03/17 05:46:25;;;;;;;1.77;1.77;;;9.30;99.90;;;;;;5062614;28;20683;-77
2022/03/17 05:48:53;;;;;;;5.60;3.58;;;9.30;99.90;;;;;;5065496;28;20188;-76
2022/03/17 05:51:19;;;;;;;2.35;2.25;;;9.30;99.90;;;;;;5073791;28;20254;-76
2022/03/17 05:53:46;;;;;;;5.03;3.42;;;9.30;99.90;;;;;;5074332;28;20200;-75
2022/03/17 05:56:13;;;;;;;11.50;6.53;;;9.30;99.90;;;;;;5072606;28;20226;-76
2022/03/17 05:58:40;;;;;;;2.95;2.65;;;9.30;99.90;;;;;;5074595;28;20287;-76
2022/03/17 06:01:06;;;;;;;3.42;3.13;;;9.30;99.90;;;;;;5073889;28;20575;-77
2022/03/17 06:03:35;;;;;;;16.88;6.38;;;9.30;99.90;;;;;;5074228;28;20219;-76
2022/03/17 06:06:03;;;;;;;2.08;1.45;;;9.40;99.90;;;;;;5073772;28;20226;-76
2022/03/17 06:08:29;;;;;;;4.65;2.05;;;9.30;99.90;;;;;;5074350;28;20192;-76
2022/03/17 06:10:56;;;;;;;1.30;1.30;;;9.40;99.90;;;;;;5073710;28;20207;-76
2022/03/17 06:13:23;;;;;;;11.80;5.50;;;9.40;99.90;;;;;;5074339;28;20199;-76
2022/03/17 06:15:49;;;;;;;0.80;0.80;;;9.50;99.90;;;;;;5074843;28;20219;-77
2022/03/17 06:18:16;;;;;;;0.93;0.93;;;9.50;99.90;;;;;;5073790;28;20205;-76
2022/03/17 06:20:44;;;;;;;0.60;0.55;;;9.60;99.90;;;;;;5073439;28;20198;-77
2022/03/17 06:23:11;;;;;;;0.50;0.40;;;9.70;99.90;;;;;;5073797;28;20223;-77
2022/03/17 06:25:38;;;;;;;14.75;7.45;;;9.70;99.90;;;;;;5073552;28;20734;-77
2022/03/17 06:28:05;;;;;;;0.98;0.98;;;9.60;99.90;;;;;;5073945;28;20193;-76
2022/03/17 06:30:34;;;;;;;2.05;1.40;;;9.50;99.90;;;;;;5072743;28;20196;-76
2022/03/17 06:33:02;;;;;;;3.70;0.88;;;9.40;99.90;;;;;;5073497;28;20206;-76
2022/03/17 06:35:29;;;;;;;3.97;3.60;;;9.30;99.90;;;;;;5066433;28;20221;-76
2022/03/17 06:37:59;;;;;;;1.48;1.38;;;9.20;99.90;;;;;;5049196;28;20578;-78
2022/03/17 06:40:27;;;;;;;0.50;0.40;;;9.10;99.90;;;;;;5032624;28;20204;-77
2022/03/17 06:42:55;;;;;;;2.63;2.50;;;9.10;99.90;;;;;;5033117;28;20217;-72
2022/03/17 06:45:22;;;;;;;2.97;2.78;;;9.10;99.90;;;;;;5033030;28;20220;-76
2022/03/17 06:47:48;;;;;;;2.45;2.35;;;9.00;99.90;;;;;;5040963;28;20206;-77
2022/03/17 06:50:17;;;;;;;3.85;2.63;;;9.00;99.90;;;;;;5050439;28;20246;-77
2022/03/17 06:52:44;;;;;;;4.82;2.90;;;9.00;99.90;;;;;;5051981;28;20194;-79
2022/03/17 06:55:12;;;;;;;0.50;0.50;;;8.90;99.90;;;;;;5050134;28;20228;-78
2022/03/17 06:57:39;;;;;;;0.50;0.40;;;8.90;99.90;;;;;;5052965;28;20188;-78
2022/03/17 07:00:08;;;;;;;0.50;0.40;;;8.90;99.90;;;;;;5052150;28;20584;-77
2022/03/17 07:02:35;;;;;;;0.50;0.40;;;8.80;99.90;;;;;;5052483;28;20198;-77
2022/03/17 07:05:02;;;;;;;5.30;2.97;;;8.80;99.90;;;;;;5052195;28;20287;-77
2022/03/17 07:07:29;;;;;;;5.85;1.52;;;8.80;99.90;;;;;;5052449;28;20209;-77
2022/03/17 07:09:55;;;;;;;0.50;0.50;;;8.70;99.90;;;;;;5052335;28;20199;-77
2022/03/17 07:12:23;;;;;;;0.50;0.40;;;8.70;99.90;;;;;;5052790;28;20202;-77
2022/03/17 07:14:50;;;;;;;1.30;1.20;;;8.60;99.90;;;;;;5052381;28;20193;-77
2022/03/17 07:17:19;;;;;;;1.27;1.25;;;8.60;99.90;;;;;;5052004;28;20204;-76
2022/03/17 07:19:46;;;;;;;5.68;2.53;;;8.60;99.90;;;;;;5051558;28;20219;-77
2022/03/17 07:22:12;;;;;;;0.50;0.40;;;8.60;99.90;;;;;;5052297;28;20195;-77
2022/03/17 07:24:39;;;;;;;2.67;2.45;;;8.50;99.90;;;;;;5053460;28;20227;-77
2022/03/17 07:27:06;;;;;;;1.45;0.60;;;8.50;99.90;;;;;;5052033;28;20219;-76
2022/03/17 07:29:34;;;;;;;5.93;3.70;;;8.50;99.90;;;;;;5051626;28;20204;-76
2022/03/17 07:32:02;;;;;;;1.50;1.20;;;8.40;99.90;;;;;;5050764;28;20676;-77
2022/03/17 07:34:29;;;;;;;10.32;3.20;;;8.40;99.90;;;;;;5052180;28;20190;-77
2022/03/17 07:36:55;;;;;;;1.40;1.13;;;8.30;99.90;;;;;;5052432;28;20231;-78
2022/03/17 07:39:22;;;;;;;0.60;0.50;;;8.20;99.90;;;;;;5051398;28;20286;-77
2022/03/17 07:41:49;;;;;;;1.65;1.48;;;8.20;99.90;;;;;;5052314;28;20195;-77
2022/03/17 07:44:16;;;;;;;0.50;0.40;;;8.10;99.90;;;;;;5051845;28;20221;-78
2022/03/17 07:46:44;;;;;;;2.05;1.95;;;8.10;99.90;;;;;;5053412;28;20220;-78
2022/03/17 07:49:10;;;;;;;3.85;1.27;;;8.20;99.90;;;;;;5054984;28;20199;-77
2022/03/17 07:51:39;;;;;;;0.93;0.93;;;8.10;99.90;;;;;;5054952;28;20198;-77
2022/03/17 07:54:07;;;;;;;0.50;0.40;;;8.20;99.90;;;;;;5056625;28;20241;-78
2022/03/17 07:56:34;;;;;;;1.77;0.60;;;8.20;99.90;;;;;;5056755;28;20596;-77
2022/03/17 07:59:01;;;;;;;6.82;2.38;;;8.10;99.90;;;;;;5054648;28;20206;-77
2022/03/17 08:01:28;;;;;;;1.08;0.90;;;8.10;99.90;;;;;;5058751;28;20200;-78
2022/03/17 08:03:56;;;;;;;0.50;0.40;;;8.10;99.90;;;;;;5057600;28;20215;-77
2022/03/17 08:06:23;;;;;;;0.50;0.40;;;8.20;99.90;;;;;;5057195;28;20584;-77
2022/03/17 08:08:50;;;;;;;0.70;0.70;;;8.30;99.90;;;;;;5056470;28;20560;-75
2022/03/17 08:11:17;;;;;;;0.77;0.77;;;8.30;99.90;;;;;;5056446;28;20200;-74
2022/03/17 08:13:45;;;;;;;0.82;0.82;;;8.30;99.90;;;;;;5057223;28;20199;-78
2022/03/17 08:16:12;;;;;;;0.70;0.63;;;8.10;99.90;;;;;;5056717;28;20218;-78
2022/03/17 08:18:39;;;;;;;2.45;1.48;;;8.10;99.90;;;;;;5055874;28;20658;-77
2022/03/17 08:21:08;;;;;;;0.65;0.60;;;8.10;99.90;;;;;;5051182;28;20221;-78
2022/03/17 08:23:34;;;;;;;1.70;1.60;;;8.10;99.90;;;;;;5052896;28;20338;-78
2022/03/17 08:26:01;;;;;;;0.60;0.60;;;8.10;99.90;;;;;;5052154;28;20218;-78
2022/03/17 08:28:28;;;;;;;0.50;0.40;;;8.20;99.90;;;;;;5053110;28;20199;-77
2022/03/17 08:30:55;;;;;;;0.50;0.40;;;8.20;99.90;;;;;;5054232;28;20202;-76
2022/03/17 08:33:23;;;;;;;1.35;0.80;;;8.30;99.90;;;;;;5055298;28;20218;-77
2022/03/17 08:35:50;;;;;;;0.60;0.60;;;8.30;99.90;;;;;;5055685;28;20581;-77
2022/03/17 08:38:18;;;;;;;1.77;0.95;;;8.40;99.90;;;;;;5055549;28;20199;-77
2022/03/17 08:40:44;;;;;;;0.50;0.40;;;8.40;99.90;;;;;;5054932;28;20666;-77
2022/03/17 08:43:12;;;;;;;0.50;0.40;;;8.50;99.90;;;;;;5055675;28;20285;-77
2022/03/17 08:51:09;;;;;;;1.05;0.95;;;8.60;99.90;;;;;;5054526;28;20199;-76
2022/03/17 08:53:38;;;;;;;0.50;0.40;;;8.60;99.90;;;;;;5055168;28;20197;-76
2022/03/17 08:56:06;;;;;;;1.67;1.10;;;8.60;99.90;;;;;;5055056;28;20224;-76
2022/03/17 08:58:35;;;;;;;0.50;0.40;;;8.70;99.90;;;;;;5055353;28;20607;-77
2022/03/17 09:01:02;;;;;;;0.50;0.50;;;8.70;99.90;;;;;;5058095;28;20248;-77
2022/03/17 09:03:30;;;;;;;3.55;1.40;;;8.90;99.90;;;;;;5061621;28;20228;-78
2022/03/17 09:05:58;;;;;;;0.50;0.40;;;8.90;99.90;;;;;;5061079;28;20233;-77
2022/03/17 09:08:25;;;;;;;3.08;1.15;;;9.00;99.90;;;;;;5059126;28;20263;-77
2022/03/17 09:10:55;;;;;;;0.80;0.80;;;9.10;99.90;;;;;;5059583;28;20206;-73
2022/03/17 09:13:22;;;;;;;0.50;0.40;;;9.20;99.90;;;;;;5060564;28;20292;-78
2022/03/17 09:15:50;;;;;;;0.50;0.40;;;9.30;99.90;;;;;;5060956;28;20733;-77
2022/03/17 09:18:17;;;;;;;0.68;0.68;;;9.30;99.90;;;;;;5060443;28;20666;-78
2022/03/17 09:20:44;;;;;;;0.93;0.80;;;9.30;99.90;;;;;;5060252;28;20205;-77
2022/03/17 09:23:11;;;;;;;1.55;1.45;;;9.40;99.90;;;;;;5061519;28;20206;-78
2022/03/17 09:25:37;;;;;;;0.50;0.50;;;9.30;99.90;;;;;;5059976;28;20221;-77
2022/03/17 09:28:06;;;;;;;0.50;0.40;;;9.20;99.90;;;;;;5056472;28;20536;-78
2022/03/17 09:30:34;;;;;;;0.50;0.40;;;9.30;99.90;;;;;;5057559;28;20209;-77
2022/03/17 09:33:03;;;;;;;0.50;0.40;;;9.30;99.90;;;;;;5055617;28;20210;-77
2022/03/17 09:35:29;;;;;;;0.50;0.40;;;9.30;99.90;;;;;;5056375;28;20312;-78
2022/03/17 09:37:56;;;;;;;1.25;1.15;;;9.30;99.90;;;;;;5055767;28;20204;-78
2022/03/17 09:40:23;;;;;;;0.60;0.50;;;9.30;99.90;;;;;;5053685;28;20202;-78
2022/03/17 09:43:18;;;;;;;0.50;0.40;;;9.20;99.90;;;;;;5054468;28;20212;-78
2022/03/17 09:45:40;;;;;;;2.35;0.73;;;9.20;99.90;;;;;;5054079;28;20217;-77
2022/03/17 09:48:09;;;;;;;1.30;1.20;;;9.10;99.90;;;;;;5054663;28;20326;-76
2022/03/17 09:50:36;;;;;;;0.50;0.40;;;9.10;99.90;;;;;;5053892;28;20542;-78
2022/03/17 09:53:03;;;;;;;0.50;0.40;;;9.20;99.90;;;;;;5054304;28;20319;-78
2022/03/17 09:55:30;;;;;;;0.50;0.40;;;9.30;99.90;;;;;;5054925;28;20259;-78
2022/03/17 09:57:57;;;;;;;0.80;0.65;;;9.30;99.90;;;;;;5055382;28;20205;-78
2022/03/17 10:00:47;;;;;;;0.50;0.40;;;9.40;99.90;;;;;;5053988;28;20198;-78
2022/03/17 10:03:12;;;;;;;0.50;0.40;;;9.30;99.90;;;;;;5053834;28;20287;-78
2022/03/17 10:05:39;;;;;;;0.50;0.50;;;9.40;99.90;;;;;;5053979;28;20690;-78
2022/03/17 10:08:06;;;;;;;0.50;0.40;;;9.50;99.90;;;;;;5053461;28;20195;-78
2022/03/17 10:10:37;;;;;;;2.30;2.10;;;9.70;99.90;;;;;;5053298;28;20213;-76
2022/03/17 10:13:06;;;;;;;1.67;1.02;;;9.80;99.90;;;;;;5053717;28;20235;-78
2022/03/17 10:15:42;;;;;;;0.60;0.50;;;9.90;99.90;;;;;;5056399;28;20581;-76
2022/03/17 10:18:23;;;;;;;0.50;0.40;;;10.00;99.90;;;;;;5053741;28;20194;-78
2022/03/17 10:21:06;;;;;;;0.50;0.40;;;10.10;99.90;;;;;;5052941;28;20206;-78
2022/03/17 10:23:33;;;;;;;1.55;1.13;;;10.00;99.90;;;;;;5054231;28;20179;-78
2022/03/17 10:25:59;;;;;;;0.70;0.68;;;10.00;99.90;;;;;;5054117;28;20729;-78
2022/03/17 10:28:27;;;;;;;0.50;0.40;;;10.00;99.90;;;;;;5053965;28;20205;-77
2022/03/17 10:31:03;;;;;;;0.50;0.40;;;10.00;99.90;;;;;;5052602;28;20229;-74
2022/03/17 10:33:32;;;;;;;0.50;0.40;;;10.00;99.90;;;;;;5053896;28;20185;-78
2022/03/17 10:36:14;;;;;;;0.50;0.40;;;10.20;99.90;;;;;;5053663;28;20714;-78
2022/03/17 10:38:44;;;;;;;0.73;0.73;;;10.20;99.90;;;;;;5053226;28;20185;-79
2022/03/17 10:41:12;;;;;;;0.50;0.40;;;10.30;99.90;;;;;;5053180;28;20593;-79
2022/03/17 10:43:41;;;;;;;0.50;0.40;;;10.50;99.90;;;;;;5052995;28;20205;-78
2022/03/17 10:46:11;;;;;;;0.50;0.40;;;10.60;99.90;;;;;;5053305;28;20226;-78
2022/03/17 10:48:53;;;;;;;0.50;0.40;;;10.70;99.90;;;;;;5053315;28;20194;-79
2022/03/17 10:51:31;;;;;;;0.50;0.40;;;10.60;99.90;;;;;;5055257;28;20235;-79
2022/03/17 10:54:03;;;;;;;0.50;0.40;;;10.60;99.90;;;;;;5052889;28;20604;-73
2022/03/17 10:56:30;;;;;;;0.50;0.40;;;10.60;99.90;;;;;;5053056;28;20283;-78
2022/03/17 10:58:59;;;;;;;0.50;0.40;;;10.60;99.90;;;;;;5052417;28;20208;-78
2022/03/17 11:01:39;;;;;;;0.50;0.40;;;10.50;99.90;;;;;;5053897;28;20201;-78
2022/03/17 11:04:08;;;;;;;0.50;0.40;;;10.40;99.90;;;;;;5052221;28;20293;-78
2022/03/17 11:06:35;;;;;;;0.50;0.40;;;10.30;99.90;;;;;;5053044;28;20225;-78
2022/03/17 11:09:02;;;;;;;1.23;1.13;;;10.30;99.90;;;;;;5051942;28;20668;-77
2022/03/17 11:11:30;;;;;;;0.60;0.60;;;10.30;99.90;;;;;;5052765;28;20683;-78
2022/03/17 11:13:57;;;;;;;0.50;0.40;;;10.10;99.90;;;;;;5053284;28;20204;-78
2022/03/17 11:16:33;;;;;;;0.50;0.40;;;10.20;99.90;;;;;;5052540;28;20221;-78
2022/03/17 11:19:00;;;;;;;0.50;0.40;;;10.20;99.90;;;;;;5051694;28;20208;-77
2022/03/17 11:21:31;;;;;;;0.60;0.50;;;10.40;99.90;;;;;;5053035;28;20201;-78
2022/03/17 11:24:04;;;;;;;0.50;0.40;;;10.70;99.90;;;;;;5053074;28;20182;-73
2022/03/17 11:26:35;;;;;;;0.50;0.40;;;11.10;99.90;;;;;;5052307;28;20260;-78
2022/03/17 11:29:07;;;;;;;0.50;0.40;;;11.50;99.90;;;;;;5052274;28;20207;-78
2022/03/17 11:31:58;;;;;;;0.50;0.40;;;11.90;99.90;;;;;;5051382;28;20601;-76
2022/03/17 11:34:42;;;;;;;0.70;0.70;;;12.20;99.90;;;;;;5052283;28;20175;-76
2022/03/17 11:37:23;;;;;;;1.10;0.50;;;12.30;99.90;;;;;;5052710;28;20638;-76
2022/03/17 11:39:51;;;;;;;0.50;0.40;;;12.20;99.90;;;;;;5051369;28;20876;-77
2022/03/17 11:42:32;;;;;;;0.50;0.40;;;12.10;99.90;;;;;;5053655;28;20234;-76
2022/03/17 11:45:11;;;;;;;0.50;0.40;;;12.30;99.90;;;;;;5053714;28;20210;-76
2022/03/17 11:47:43;;;;;;;1.67;0.80;;;12.40;99.90;;;;;;5052729;28;20698;-77
2022/03/17 11:50:26;;;;;;;0.50;0.40;;;12.20;99.90;;;;;;5051494;28;20198;-76
2022/03/17 11:52:57;;;;;;;0.50;0.40;;;12.10;99.90;;;;;;5051200;28;20672;-77
2022/03/17 11:55:38;;;;;;;0.70;0.60;;;12.10;99.90;;;;;;5051770;28;20225;-76
2022/03/17 11:58:29;;;;;;;0.50;0.40;;;12.30;99.90;;;;;;5052681;28;20289;-76
2022/03/17 12:01:04;;;;;;;0.50;0.40;;;12.70;99.90;;;;;;5051495;28;20463;-75
2022/03/17 12:03:37;;;;;;;0.50;0.40;;;13.00;99.90;;;;;;5051599;28;20179;-76
2022/03/17 12:06:15;;;;;;;0.50;0.40;;;13.30;99.90;;;;;;5052301;28;20481;-76
2022/03/17 12:08:51;;;;;;;0.50;0.40;;;13.30;99.90;;;;;;5052153;28;20975;-77
2022/03/17 12:11:22;;;;;;;0.50;0.40;;;13.10;99.90;;;;;;5051436;28;20994;-78
2022/03/17 12:14:20;;;;;;;3.85;3.60;;;12.70;99.90;;;;;;5051899;28;20199;-78
2022/03/17 12:16:49;;;;;;;0.50;0.40;;;12.60;99.90;;;;;;5051578;28;20210;-78
2022/03/17 12:19:26;;;;;;;0.50;0.40;;;12.40;99.90;;;;;;5051400;28;20565;-77
2022/03/17 12:22:13;;;;;;;0.50;0.40;;;12.60;99.90;;;;;;5052241;28;20467;-78
2022/03/17 12:24:47;;;;;;;0.50;0.40;;;12.60;99.90;;;;;;5051447;28;20221;-78
2022/03/17 12:27:26;;;;;;;0.50;0.40;;;12.40;99.90;;;;;;5051828;28;20204;-78
2022/03/17 12:29:58;;;;;;;0.95;0.95;;;12.40;99.90;;;;;;5051170;28;20232;-74
2022/03/17 12:32:26;;;;;;;0.50;0.40;;;12.40;99.90;;;;;;5050497;28;20179;-78
2022/03/17 12:34:54;;;;;;;0.50;0.40;;;12.50;99.90;;;;;;5051666;28;20190;-79
2022/03/17 12:37:24;;;;;;;0.50;0.40;;;12.60;99.90;;;;;;5050598;28;20444;-78
2022/03/17 12:39:54;;;;;;;0.50;0.40;;;12.70;99.90;;;;;;5051256;28;20207;-78
2022/03/17 12:42:22;;;;;;;0.50;0.40;;;12.60;99.90;;;;;;5051801;28;20205;-78
2022/03/17 12:44:55;;;;;;;1.73;1.63;;;12.70;99.90;;;;;;5051517;28;20643;-78
2022/03/17 12:47:24;;;;;;;0.50;0.40;;;12.60;99.90;;;;;;5051567;28;20860;-78
2022/03/17 12:49:51;;;;;;;0.50;0.40;;;12.50;99.90;;;;;;5051110;28;20199;-78
2022/03/17 12:52:21;;;;;;;0.50;0.40;;;12.50;99.90;;;;;;5051919;28;20199;-78
2022/03/17 12:54:49;;;;;;;0.50;0.40;;;12.40;99.90;;;;;;5051714;28;20260;-76
2022/03/17 12:57:18;;;;;;;0.50;0.40;;;12.40;99.90;;;;;;5051292;28;20186;-78
2022/03/17 12:59:45;;;;;;;0.50;0.40;;;12.30;99.90;;;;;;5050909;28;20239;-78
2022/03/17 13:02:17;;;;;;;0.50;0.40;;;12.40;99.90;;;;;;5051648;28;20190;-78
2022/03/17 13:04:45;;;;;;;0.50;0.40;;;12.40;99.90;;;;;;5051703;28;20260;-78
2022/03/17 13:07:14;;;;;;;0.50;0.40;;;12.60;99.90;;;;;;5051498;28;20198;-77
2022/03/17 13:09:41;;;;;;;0.50;0.40;;;12.50;99.90;;;;;;5050275;28;20203;-78
2022/03/17 13:14:56;;;;;;;0.50;0.40;;;12.20;99.90;;;;;;5053080;28;20411;-76
2022/03/17 13:17:36;;;;;;;0.50;0.40;;;12.10;99.90;;;;;;5055316;28;20217;-77